sensor_id;sensor_type;location;lat;lon;timestamp;P1;durP1;ratioP1;P2;durP2;ratioP2
64936;SDS011;51452;47.698;19.050;2023-02-27T00:01:05;8.23;;;2.90;;
64936;SDS011;51452;47.698;19.050;2023-02-27T00:03:30;4.40;;;2.77;;
64936;SDS011;51452;47.698;19.050;2023-02-27T00:05:56;7.33;;;2.80;;
64936;SDS011;51452;47.698;19.050;2023-02-27T00:08:21;5.00;;;2.80;;
64936;SDS011;51452;47.698;19.050;2023-02-27T00:10:47;5.10;;;2.80;;
64936;SDS011;51452;47.698;19.050;2023-02-27T00:13:12;6.10;;;2.60;;
64936;SDS011;51452;47.698;19.050;2023-02-27T00:15:38;6.27;;;2.90;;
64936;SDS011;51452;47.698;19.050;2023-02-27T00:18:05;5.70;;;3.20;;
64936;SDS011;51452;47.698;19.050;2023-02-27T00:20:31;5.70;;;2.77;;
64936;SDS011;51452;47.698;19.050;2023-02-27T00:23:01;4.70;;;2.77;;
64936;SDS011;51452;47.698;19.050;2023-02-27T00:25:31;4.03;;;2.67;;
64936;SDS011;51452;47.698;19.050;2023-02-27T00:27:57;5.83;;;3.00;;
64936;SDS011;51452;47.698;19.050;2023-02-27T00:30:23;5.33;;;3.03;;
64936;SDS011;51452;47.698;19.050;2023-02-27T00:32:50;6.67;;;3.07;;
64936;SDS011;51452;47.698;19.050;2023-02-27T00:35:16;6.90;;;3.00;;
64936;SDS011;51452;47.698;19.050;2023-02-27T00:37:42;5.93;;;2.80;;
64936;SDS011;51452;47.698;19.050;2023-02-27T00:40:08;4.87;;;2.70;;
64936;SDS011;51452;47.698;19.050;2023-02-27T00:42:34;5.90;;;2.60;;
64936;SDS011;51452;47.698;19.050;2023-02-27T00:44:59;7.10;;;2.90;;
64936;SDS011;51452;47.698;19.050;2023-02-27T00:47:25;6.93;;;3.00;;
64936;SDS011;51452;47.698;19.050;2023-02-27T00:49:50;5.43;;;3.03;;
64936;SDS011;51452;47.698;19.050;2023-02-27T00:52:16;6.20;;;2.67;;
64936;SDS011;51452;47.698;19.050;2023-02-27T00:54:41;5.20;;;2.97;;
64936;SDS011;51452;47.698;19.050;2023-02-27T00:57:06;4.07;;;2.67;;
64936;SDS011;51452;47.698;19.050;2023-02-27T00:59:32;5.90;;;3.30;;
64936;SDS011;51452;47.698;19.050;2023-02-27T01:01:57;5.03;;;2.80;;
64936;SDS011;51452;47.698;19.050;2023-02-27T01:04:23;6.70;;;3.20;;
64936;SDS011;51452;47.698;19.050;2023-02-27T01:06:48;5.17;;;2.70;;
64936;SDS011;51452;47.698;19.050;2023-02-27T01:09:13;6.33;;;2.80;;
64936;SDS011;51452;47.698;19.050;2023-02-27T01:11:39;6.37;;;3.13;;
64936;SDS011;51452;47.698;19.050;2023-02-27T01:14:04;4.70;;;2.67;;
64936;SDS011;51452;47.698;19.050;2023-02-27T01:16:30;5.77;;;3.20;;
64936;SDS011;51452;47.698;19.050;2023-02-27T01:18:56;8.10;;;3.00;;
64936;SDS011;51452;47.698;19.050;2023-02-27T01:21:21;4.87;;;2.43;;
64936;SDS011;51452;47.698;19.050;2023-02-27T01:23:47;5.10;;;2.73;;
64936;SDS011;51452;47.698;19.050;2023-02-27T01:26:13;5.40;;;2.77;;
64936;SDS011;51452;47.698;19.050;2023-02-27T01:28:38;6.07;;;2.80;;
64936;SDS011;51452;47.698;19.050;2023-02-27T01:31:04;7.00;;;3.20;;
64936;SDS011;51452;47.698;19.050;2023-02-27T01:33:29;5.20;;;2.67;;
64936;SDS011;51452;47.698;19.050;2023-02-27T01:35:55;6.80;;;3.10;;
64936;SDS011;51452;47.698;19.050;2023-02-27T01:38:21;5.77;;;2.47;;
64936;SDS011;51452;47.698;19.050;2023-02-27T01:40:46;5.30;;;3.00;;
64936;SDS011;51452;47.698;19.050;2023-02-27T01:43:16;5.23;;;2.33;;
64936;SDS011;51452;47.698;19.050;2023-02-27T01:45:43;4.43;;;2.73;;
64936;SDS011;51452;47.698;19.050;2023-02-27T01:50:38;7.13;;;2.70;;
64936;SDS011;51452;47.698;19.050;2023-02-27T01:53:07;4.10;;;2.60;;
64936;SDS011;51452;47.698;19.050;2023-02-27T01:55:34;6.93;;;3.27;;
64936;SDS011;51452;47.698;19.050;2023-02-27T01:58:02;5.00;;;2.57;;
64936;SDS011;51452;47.698;19.050;2023-02-27T02:00:30;4.20;;;2.53;;
64936;SDS011;51452;47.698;19.050;2023-02-27T02:02:59;3.97;;;2.80;;
64936;SDS011;51452;47.698;19.050;2023-02-27T02:07:57;5.37;;;2.60;;
64936;SDS011;51452;47.698;19.050;2023-02-27T02:10:23;4.33;;;2.43;;
64936;SDS011;51452;47.698;19.050;2023-02-27T02:12:49;5.60;;;2.40;;
64936;SDS011;51452;47.698;19.050;2023-02-27T02:15:14;3.43;;;2.40;;
64936;SDS011;51452;47.698;19.050;2023-02-27T02:34:59;5.60;;;2.90;;
64936;SDS011;51452;47.698;19.050;2023-02-27T02:50:19;5.53;;;2.70;;
64936;SDS011;51452;47.698;19.050;2023-02-27T02:56:02;4.50;;;2.20;;
64936;SDS011;51452;47.698;19.050;2023-02-27T03:01:35;3.60;;;1.90;;
64936;SDS011;51452;47.698;19.050;2023-02-27T03:04:06;2.87;;;1.90;;
64936;SDS011;51452;47.698;19.050;2023-02-27T03:06:37;5.67;;;2.87;;
64936;SDS011;51452;47.698;19.050;2023-02-27T03:12:01;4.90;;;2.30;;
64936;SDS011;51452;47.698;19.050;2023-02-27T03:14:30;4.33;;;2.10;;
64936;SDS011;51452;47.698;19.050;2023-02-27T03:17:18;4.57;;;2.30;;
64936;SDS011;51452;47.698;19.050;2023-02-27T03:19:55;5.23;;;2.50;;
64936;SDS011;51452;47.698;19.050;2023-02-27T03:22:36;5.60;;;2.50;;
64936;SDS011;51452;47.698;19.050;2023-02-27T03:25:05;4.13;;;2.03;;
64936;SDS011;51452;47.698;19.050;2023-02-27T03:27:34;5.43;;;2.40;;
64936;SDS011;51452;47.698;19.050;2023-02-27T03:30:07;4.03;;;2.27;;
64936;SDS011;51452;47.698;19.050;2023-02-27T03:35:06;3.97;;;2.00;;
64936;SDS011;51452;47.698;19.050;2023-02-27T03:43:29;4.80;;;1.63;;
64936;SDS011;51452;47.698;19.050;2023-02-27T03:46:12;3.72;;;1.70;;
64936;SDS011;51452;47.698;19.050;2023-02-27T03:48:40;3.20;;;1.90;;
64936;SDS011;51452;47.698;19.050;2023-02-27T03:51:16;3.60;;;2.10;;
64936;SDS011;51452;47.698;19.050;2023-02-27T03:56:44;4.83;;;2.43;;
64936;SDS011;51452;47.698;19.050;2023-02-27T03:59:15;7.13;;;2.30;;
64936;SDS011;51452;47.698;19.050;2023-02-27T04:01:41;4.70;;;2.40;;
64936;SDS011;51452;47.698;19.050;2023-02-27T04:04:12;4.03;;;2.33;;
64936;SDS011;51452;47.698;19.050;2023-02-27T04:06:40;4.10;;;2.23;;
64936;SDS011;51452;47.698;19.050;2023-02-27T04:12:14;4.27;;;2.13;;
64936;SDS011;51452;47.698;19.050;2023-02-27T04:17:24;3.70;;;2.17;;
64936;SDS011;51452;47.698;19.050;2023-02-27T04:22:45;4.27;;;2.00;;
64936;SDS011;51452;47.698;19.050;2023-02-27T04:27:47;4.20;;;2.07;;
64936;SDS011;51452;47.698;19.050;2023-02-27T04:35:39;5.33;;;2.17;;
64936;SDS011;51452;47.698;19.050;2023-02-27T04:38:08;5.20;;;2.23;;
64936;SDS011;51452;47.698;19.050;2023-02-27T04:41:04;5.20;;;2.20;;
64936;SDS011;51452;47.698;19.050;2023-02-27T04:43:34;4.88;;;2.28;;
64936;SDS011;51452;47.698;19.050;2023-02-27T04:46:02;4.83;;;2.10;;
64936;SDS011;51452;47.698;19.050;2023-02-27T04:48:37;3.30;;;1.73;;
64936;SDS011;51452;47.698;19.050;2023-02-27T04:51:11;3.83;;;1.97;;
64936;SDS011;51452;47.698;19.050;2023-02-27T04:53:42;4.07;;;1.97;;
64936;SDS011;51452;47.698;19.050;2023-02-27T04:56:11;8.37;;;2.30;;
64936;SDS011;51452;47.698;19.050;2023-02-27T04:58:45;4.07;;;2.00;;
64936;SDS011;51452;47.698;19.050;2023-02-27T05:01:17;4.68;;;1.73;;
64936;SDS011;51452;47.698;19.050;2023-02-27T05:03:49;3.53;;;2.00;;
64936;SDS011;51452;47.698;19.050;2023-02-27T05:06:18;4.17;;;1.73;;
64936;SDS011;51452;47.698;19.050;2023-02-27T05:12:03;4.73;;;1.90;;
64936;SDS011;51452;47.698;19.050;2023-02-27T05:14:40;3.87;;;1.80;;
64936;SDS011;51452;47.698;19.050;2023-02-27T05:17:13;3.47;;;1.90;;
64936;SDS011;51452;47.698;19.050;2023-02-27T05:19:44;3.40;;;1.70;;
64936;SDS011;51452;47.698;19.050;2023-02-27T05:25:19;4.97;;;1.80;;
64936;SDS011;51452;47.698;19.050;2023-02-27T05:35:49;3.42;;;1.80;;
64936;SDS011;51452;47.698;19.050;2023-02-27T05:38:24;4.93;;;2.27;;
64936;SDS011;51452;47.698;19.050;2023-02-27T05:40:52;3.33;;;1.70;;
64936;SDS011;51452;47.698;19.050;2023-02-27T05:43:41;3.33;;;1.53;;
64936;SDS011;51452;47.698;19.050;2023-02-27T05:46:12;4.07;;;1.77;;
64936;SDS011;51452;47.698;19.050;2023-02-27T05:48:46;4.13;;;1.80;;
64936;SDS011;51452;47.698;19.050;2023-02-27T05:51:17;5.70;;;1.80;;
64936;SDS011;51452;47.698;19.050;2023-02-27T05:53:49;5.00;;;1.80;;
64936;SDS011;51452;47.698;19.050;2023-02-27T05:56:20;4.13;;;1.87;;
64936;SDS011;51452;47.698;19.050;2023-02-27T05:58:53;2.80;;;1.80;;
64936;SDS011;51452;47.698;19.050;2023-02-27T06:01:23;3.43;;;1.47;;
64936;SDS011;51452;47.698;19.050;2023-02-27T06:03:49;3.70;;;1.70;;
64936;SDS011;51452;47.698;19.050;2023-02-27T06:06:15;8.17;;;1.63;;
64936;SDS011;51452;47.698;19.050;2023-02-27T06:08:42;3.43;;;1.90;;
64936;SDS011;51452;47.698;19.050;2023-02-27T06:11:08;3.10;;;1.50;;
64936;SDS011;51452;47.698;19.050;2023-02-27T06:13:34;4.63;;;1.67;;
64936;SDS011;51452;47.698;19.050;2023-02-27T06:15:59;3.53;;;1.60;;
64936;SDS011;51452;47.698;19.050;2023-02-27T06:18:25;3.73;;;1.70;;
64936;SDS011;51452;47.698;19.050;2023-02-27T06:20:50;4.57;;;1.80;;
64936;SDS011;51452;47.698;19.050;2023-02-27T06:23:16;3.03;;;1.63;;
64936;SDS011;51452;47.698;19.050;2023-02-27T06:25:42;4.63;;;2.00;;
64936;SDS011;51452;47.698;19.050;2023-02-27T06:28:07;5.23;;;1.90;;
64936;SDS011;51452;47.698;19.050;2023-02-27T06:30:33;3.90;;;2.13;;
64936;SDS011;51452;47.698;19.050;2023-02-27T06:32:58;4.93;;;1.93;;
64936;SDS011;51452;47.698;19.050;2023-02-27T06:35:25;4.17;;;1.33;;
64936;SDS011;51452;47.698;19.050;2023-02-27T06:37:51;7.57;;;2.23;;
64936;SDS011;51452;47.698;19.050;2023-02-27T06:40:16;3.57;;;1.80;;
64936;SDS011;51452;47.698;19.050;2023-02-27T06:42:43;5.13;;;2.17;;
64936;SDS011;51452;47.698;19.050;2023-02-27T06:45:09;4.50;;;2.03;;
64936;SDS011;51452;47.698;19.050;2023-02-27T06:47:36;4.30;;;2.00;;
64936;SDS011;51452;47.698;19.050;2023-02-27T06:50:02;3.00;;;1.70;;
64936;SDS011;51452;47.698;19.050;2023-02-27T06:52:29;4.60;;;1.90;;
64936;SDS011;51452;47.698;19.050;2023-02-27T06:54:55;4.43;;;2.27;;
64936;SDS011;51452;47.698;19.050;2023-02-27T06:57:20;2.40;;;1.30;;
64936;SDS011;51452;47.698;19.050;2023-02-27T06:59:46;4.60;;;1.73;;
64936;SDS011;51452;47.698;19.050;2023-02-27T07:02:11;3.10;;;1.67;;
64936;SDS011;51452;47.698;19.050;2023-02-27T07:04:38;4.13;;;1.70;;
64936;SDS011;51452;47.698;19.050;2023-02-27T07:07:04;4.73;;;1.67;;
64936;SDS011;51452;47.698;19.050;2023-02-27T07:09:29;3.17;;;1.57;;
64936;SDS011;51452;47.698;19.050;2023-02-27T07:11:55;3.73;;;1.73;;
64936;SDS011;51452;47.698;19.050;2023-02-27T07:14:21;3.50;;;1.40;;
64936;SDS011;51452;47.698;19.050;2023-02-27T07:16:46;3.77;;;1.77;;
64936;SDS011;51452;47.698;19.050;2023-02-27T07:19:15;4.03;;;2.00;;
64936;SDS011;51452;47.698;19.050;2023-02-27T07:21:42;3.60;;;1.43;;
64936;SDS011;51452;47.698;19.050;2023-02-27T07:24:08;4.70;;;2.20;;
64936;SDS011;51452;47.698;19.050;2023-02-27T07:26:34;4.57;;;2.07;;
64936;SDS011;51452;47.698;19.050;2023-02-27T07:28:59;3.87;;;2.00;;
64936;SDS011;51452;47.698;19.050;2023-02-27T07:31:24;8.03;;;2.10;;
64936;SDS011;51452;47.698;19.050;2023-02-27T07:33:50;4.23;;;1.90;;
64936;SDS011;51452;47.698;19.050;2023-02-27T07:36:15;5.30;;;2.30;;
64936;SDS011;51452;47.698;19.050;2023-02-27T07:38:41;5.27;;;2.27;;
64936;SDS011;51452;47.698;19.050;2023-02-27T07:41:06;4.67;;;2.20;;
64936;SDS011;51452;47.698;19.050;2023-02-27T07:43:32;5.53;;;2.13;;
64936;SDS011;51452;47.698;19.050;2023-02-27T07:45:57;4.33;;;1.60;;
64936;SDS011;51452;47.698;19.050;2023-02-27T07:48:23;5.67;;;1.80;;
64936;SDS011;51452;47.698;19.050;2023-02-27T07:50:49;5.63;;;2.10;;
64936;SDS011;51452;47.698;19.050;2023-02-27T07:53:14;3.80;;;2.00;;
64936;SDS011;51452;47.698;19.050;2023-02-27T07:55:39;4.23;;;1.60;;
64936;SDS011;51452;47.698;19.050;2023-02-27T07:58:05;3.30;;;1.90;;
64936;SDS011;51452;47.698;19.050;2023-02-27T08:00:30;3.57;;;1.90;;
64936;SDS011;51452;47.698;19.050;2023-02-27T08:02:56;4.33;;;2.07;;
64936;SDS011;51452;47.698;19.050;2023-02-27T08:05:21;4.37;;;1.97;;
64936;SDS011;51452;47.698;19.050;2023-02-27T08:07:47;8.63;;;3.67;;
64936;SDS011;51452;47.698;19.050;2023-02-27T08:10:12;3.47;;;1.77;;
64936;SDS011;51452;47.698;19.050;2023-02-27T08:12:40;3.97;;;1.87;;
64936;SDS011;51452;47.698;19.050;2023-02-27T08:15:05;4.53;;;2.30;;
64936;SDS011;51452;47.698;19.050;2023-02-27T08:17:31;4.33;;;2.17;;
64936;SDS011;51452;47.698;19.050;2023-02-27T08:19:57;3.30;;;1.97;;
64936;SDS011;51452;47.698;19.050;2023-02-27T08:22:22;3.67;;;1.87;;
64936;SDS011;51452;47.698;19.050;2023-02-27T08:24:48;3.10;;;1.90;;
64936;SDS011;51452;47.698;19.050;2023-02-27T08:27:13;3.93;;;1.80;;
64936;SDS011;51452;47.698;19.050;2023-02-27T08:29:39;4.73;;;1.80;;
64936;SDS011;51452;47.698;19.050;2023-02-27T08:32:05;2.83;;;1.80;;
64936;SDS011;51452;47.698;19.050;2023-02-27T08:34:30;5.43;;;1.77;;
64936;SDS011;51452;47.698;19.050;2023-02-27T08:36:56;4.57;;;1.87;;
64936;SDS011;51452;47.698;19.050;2023-02-27T08:39:21;4.33;;;1.83;;
64936;SDS011;51452;47.698;19.050;2023-02-27T08:41:50;3.67;;;1.67;;
64936;SDS011;51452;47.698;19.050;2023-02-27T08:44:16;4.17;;;1.67;;
64936;SDS011;51452;47.698;19.050;2023-02-27T08:46:42;4.00;;;1.80;;
64936;SDS011;51452;47.698;19.050;2023-02-27T08:49:08;6.90;;;1.90;;
64936;SDS011;51452;47.698;19.050;2023-02-27T08:51:33;4.57;;;1.60;;
64936;SDS011;51452;47.698;19.050;2023-02-27T08:53:59;3.27;;;1.80;;
64936;SDS011;51452;47.698;19.050;2023-02-27T08:56:26;5.33;;;1.87;;
64936;SDS011;51452;47.698;19.050;2023-02-27T08:58:52;4.40;;;1.90;;
64936;SDS011;51452;47.698;19.050;2023-02-27T09:01:17;4.33;;;1.80;;
64936;SDS011;51452;47.698;19.050;2023-02-27T09:03:43;2.73;;;1.70;;
64936;SDS011;51452;47.698;19.050;2023-02-27T09:06:08;3.47;;;1.87;;
64936;SDS011;51452;47.698;19.050;2023-02-27T09:08:34;3.70;;;2.00;;
64936;SDS011;51452;47.698;19.050;2023-02-27T09:11:00;3.47;;;1.80;;
64936;SDS011;51452;47.698;19.050;2023-02-27T09:13:26;3.77;;;1.90;;
64936;SDS011;51452;47.698;19.050;2023-02-27T09:15:52;4.53;;;2.20;;
64936;SDS011;51452;47.698;19.050;2023-02-27T09:18:18;3.83;;;1.90;;
64936;SDS011;51452;47.698;19.050;2023-02-27T09:20:44;4.17;;;2.07;;
64936;SDS011;51452;47.698;19.050;2023-02-27T09:23:10;4.37;;;2.20;;
64936;SDS011;51452;47.698;19.050;2023-02-27T09:25:35;4.97;;;2.10;;
64936;SDS011;51452;47.698;19.050;2023-02-27T09:28:01;4.87;;;1.77;;
64936;SDS011;51452;47.698;19.050;2023-02-27T09:30:27;3.50;;;2.07;;
64936;SDS011;51452;47.698;19.050;2023-02-27T09:32:52;4.73;;;2.47;;
64936;SDS011;51452;47.698;19.050;2023-02-27T09:35:18;5.03;;;2.00;;
64936;SDS011;51452;47.698;19.050;2023-02-27T09:37:46;4.17;;;2.23;;
64936;SDS011;51452;47.698;19.050;2023-02-27T09:42:51;4.00;;;2.17;;
64936;SDS011;51452;47.698;19.050;2023-02-27T09:45:24;6.03;;;2.40;;
64936;SDS011;51452;47.698;19.050;2023-02-27T09:47:57;6.17;;;2.83;;
64936;SDS011;51452;47.698;19.050;2023-02-27T09:50:37;3.93;;;1.90;;
64936;SDS011;51452;47.698;19.050;2023-02-27T09:53:06;4.77;;;2.43;;
64936;SDS011;51452;47.698;19.050;2023-02-27T09:55:56;4.23;;;2.20;;
64936;SDS011;51452;47.698;19.050;2023-02-27T10:06:46;5.50;;;2.10;;
64936;SDS011;51452;47.698;19.050;2023-02-27T10:09:19;4.60;;;2.03;;
64936;SDS011;51452;47.698;19.050;2023-02-27T10:14:46;3.40;;;1.97;;
64936;SDS011;51452;47.698;19.050;2023-02-27T10:17:23;4.37;;;2.23;;
64936;SDS011;51452;47.698;19.050;2023-02-27T10:19:53;4.30;;;2.40;;
64936;SDS011;51452;47.698;19.050;2023-02-27T10:22:29;6.53;;;2.70;;
64936;SDS011;51452;47.698;19.050;2023-02-27T10:25:10;4.97;;;2.40;;
64936;SDS011;51452;47.698;19.050;2023-02-27T10:27:39;4.33;;;1.90;;
64936;SDS011;51452;47.698;19.050;2023-02-27T10:32:47;3.87;;;2.17;;
64936;SDS011;51452;47.698;19.050;2023-02-27T10:37:47;4.27;;;2.27;;
64936;SDS011;51452;47.698;19.050;2023-02-27T10:40:14;8.57;;;2.73;;
64936;SDS011;51452;47.698;19.050;2023-02-27T10:42:40;6.03;;;2.23;;
64936;SDS011;51452;47.698;19.050;2023-02-27T10:45:11;3.97;;;2.10;;
64936;SDS011;51452;47.698;19.050;2023-02-27T10:47:39;4.50;;;2.23;;
64936;SDS011;51452;47.698;19.050;2023-02-27T10:53:06;4.03;;;2.20;;
64936;SDS011;51452;47.698;19.050;2023-02-27T10:55:43;7.87;;;1.97;;
64936;SDS011;51452;47.698;19.050;2023-02-27T10:58:16;4.07;;;2.20;;
64936;SDS011;51452;47.698;19.050;2023-02-27T11:00:56;3.57;;;2.10;;
64936;SDS011;51452;47.698;19.050;2023-02-27T11:03:33;4.50;;;2.27;;
64936;SDS011;51452;47.698;19.050;2023-02-27T11:06:05;4.97;;;1.90;;
64936;SDS011;51452;47.698;19.050;2023-02-27T11:08:46;3.80;;;1.90;;
64936;SDS011;51452;47.698;19.050;2023-02-27T11:11:34;5.27;;;2.20;;
64936;SDS011;51452;47.698;19.050;2023-02-27T11:14:13;5.00;;;2.20;;
64936;SDS011;51452;47.698;19.050;2023-02-27T11:16:53;4.50;;;1.93;;
64936;SDS011;51452;47.698;19.050;2023-02-27T11:19:24;6.00;;;2.30;;
64936;SDS011;51452;47.698;19.050;2023-02-27T11:24:38;4.30;;;2.00;;
64936;SDS011;51452;47.698;19.050;2023-02-27T11:27:15;4.47;;;1.80;;
64936;SDS011;51452;47.698;19.050;2023-02-27T11:32:34;7.80;;;2.27;;
64936;SDS011;51452;47.698;19.050;2023-02-27T11:35:18;5.33;;;2.30;;
64936;SDS011;51452;47.698;19.050;2023-02-27T11:37:50;4.47;;;2.00;;
64936;SDS011;51452;47.698;19.050;2023-02-27T11:40:18;5.33;;;1.83;;
64936;SDS011;51452;47.698;19.050;2023-02-27T11:42:52;5.60;;;2.00;;
64936;SDS011;51452;47.698;19.050;2023-02-27T11:45:35;4.43;;;2.37;;
64936;SDS011;51452;47.698;19.050;2023-02-27T11:51:07;3.90;;;2.43;;
64936;SDS011;51452;47.698;19.050;2023-02-27T11:56:34;4.03;;;2.35;;
64936;SDS011;51452;47.698;19.050;2023-02-27T12:01:59;4.15;;;2.28;;
64936;SDS011;51452;47.698;19.050;2023-02-27T12:07:20;5.93;;;2.83;;
64936;SDS011;51452;47.698;19.050;2023-02-27T12:09:52;6.00;;;2.17;;
64936;SDS011;51452;47.698;19.050;2023-02-27T12:26:18;4.53;;;2.27;;
64936;SDS011;51452;47.698;19.050;2023-02-27T12:28:55;5.03;;;3.00;;
64936;SDS011;51452;47.698;19.050;2023-02-27T12:36:36;4.33;;;2.43;;
64936;SDS011;51452;47.698;19.050;2023-02-27T12:39:01;4.63;;;2.50;;
64936;SDS011;51452;47.698;19.050;2023-02-27T12:41:31;4.50;;;2.20;;
64936;SDS011;51452;47.698;19.050;2023-02-27T12:49:29;4.67;;;2.50;;
64936;SDS011;51452;47.698;19.050;2023-02-27T13:00:11;5.23;;;2.50;;
64936;SDS011;51452;47.698;19.050;2023-02-27T13:11:24;6.10;;;2.70;;
64936;SDS011;51452;47.698;19.050;2023-02-27T13:14:46;4.33;;;2.20;;
64936;SDS011;51452;47.698;19.050;2023-02-27T13:17:03;4.10;;;2.27;;
64936;SDS011;51452;47.698;19.050;2023-02-27T13:25:01;5.53;;;2.50;;
64936;SDS011;51452;47.698;19.050;2023-02-27T13:27:39;5.37;;;2.67;;
64936;SDS011;51452;47.698;19.050;2023-02-27T13:35:37;4.07;;;2.00;;
64936;SDS011;51452;47.698;19.050;2023-02-27T13:41:43;5.87;;;2.60;;
64936;SDS011;51452;47.698;19.050;2023-02-27T13:43:53;5.60;;;2.43;;
64936;SDS011;51452;47.698;19.050;2023-02-27T13:49:34;5.20;;;2.57;;
64936;SDS011;51452;47.698;19.050;2023-02-27T13:56:37;4.07;;;2.30;;
64936;SDS011;51452;47.698;19.050;2023-02-27T13:59:19;4.83;;;2.50;;
64936;SDS011;51452;47.698;19.050;2023-02-27T14:01:50;4.10;;;2.53;;
64936;SDS011;51452;47.698;19.050;2023-02-27T14:04:18;4.90;;;2.13;;
64936;SDS011;51452;47.698;19.050;2023-02-27T14:06:44;5.20;;;2.40;;
64936;SDS011;51452;47.698;19.050;2023-02-27T14:09:12;5.60;;;2.50;;
64936;SDS011;51452;47.698;19.050;2023-02-27T14:11:50;4.47;;;2.40;;
64936;SDS011;51452;47.698;19.050;2023-02-27T14:14:34;4.60;;;2.47;;
64936;SDS011;51452;47.698;19.050;2023-02-27T14:17:00;5.63;;;2.40;;
64936;SDS011;51452;47.698;19.050;2023-02-27T14:19:42;6.80;;;2.67;;
64936;SDS011;51452;47.698;19.050;2023-02-27T14:24:41;5.47;;;2.70;;
64936;SDS011;51452;47.698;19.050;2023-02-27T14:29:48;6.83;;;2.90;;
64936;SDS011;51452;47.698;19.050;2023-02-27T14:32:29;6.20;;;2.60;;
64936;SDS011;51452;47.698;19.050;2023-02-27T14:34:57;4.73;;;2.67;;
64936;SDS011;51452;47.698;19.050;2023-02-27T14:37:24;5.60;;;2.50;;
64936;SDS011;51452;47.698;19.050;2023-02-27T14:39:52;3.90;;;2.73;;
64936;SDS011;51452;47.698;19.050;2023-02-27T14:42:42;9.37;;;2.80;;
64936;SDS011;51452;47.698;19.050;2023-02-27T14:45:13;4.77;;;2.60;;
64936;SDS011;51452;47.698;19.050;2023-02-27T14:47:41;5.90;;;2.83;;
64936;SDS011;51452;47.698;19.050;2023-02-27T14:50:52;9.23;;;3.30;;
64936;SDS011;51452;47.698;19.050;2023-02-27T14:52:53;5.07;;;2.53;;
64936;SDS011;51452;47.698;19.050;2023-02-27T14:55:20;4.77;;;2.30;;
64936;SDS011;51452;47.698;19.050;2023-02-27T15:00:55;8.90;;;3.50;;
64936;SDS011;51452;47.698;19.050;2023-02-27T15:06:20;5.80;;;2.90;;
64936;SDS011;51452;47.698;19.050;2023-02-27T15:08:49;7.03;;;3.30;;
64936;SDS011;51452;47.698;19.050;2023-02-27T15:11:17;5.70;;;2.90;;
64936;SDS011;51452;47.698;19.050;2023-02-27T15:13:45;6.27;;;3.07;;
64936;SDS011;51452;47.698;19.050;2023-02-27T15:18:49;5.00;;;2.40;;
64936;SDS011;51452;47.698;19.050;2023-02-27T15:21:20;8.47;;;3.03;;
64936;SDS011;51452;47.698;19.050;2023-02-27T15:23:54;6.53;;;3.10;;
64936;SDS011;51452;47.698;19.050;2023-02-27T15:26:21;7.57;;;3.47;;
64936;SDS011;51452;47.698;19.050;2023-02-27T15:28:48;5.07;;;3.00;;
64936;SDS011;51452;47.698;19.050;2023-02-27T15:31:17;5.17;;;2.87;;
64936;SDS011;51452;47.698;19.050;2023-02-27T15:33:45;6.20;;;3.27;;
64936;SDS011;51452;47.698;19.050;2023-02-27T15:36:18;6.37;;;3.20;;
64936;SDS011;51452;47.698;19.050;2023-02-27T15:38:47;4.40;;;2.95;;
64936;SDS011;51452;47.698;19.050;2023-02-27T15:41:45;6.10;;;3.03;;
64936;SDS011;51452;47.698;19.050;2023-02-27T15:44:13;5.90;;;3.00;;
64936;SDS011;51452;47.698;19.050;2023-02-27T15:46:44;6.23;;;2.80;;
64936;SDS011;51452;47.698;19.050;2023-02-27T15:49:14;8.60;;;3.83;;
64936;SDS011;51452;47.698;19.050;2023-02-27T15:51:43;9.93;;;3.90;;
64936;SDS011;51452;47.698;19.050;2023-02-27T15:54:12;8.97;;;3.60;;
64936;SDS011;51452;47.698;19.050;2023-02-27T15:56:38;10.50;;;3.80;;
64936;SDS011;51452;47.698;19.050;2023-02-27T15:59:04;7.17;;;3.43;;
64936;SDS011;51452;47.698;19.050;2023-02-27T16:01:31;9.90;;;3.93;;
64936;SDS011;51452;47.698;19.050;2023-02-27T16:03:59;6.37;;;3.40;;
64936;SDS011;51452;47.698;19.050;2023-02-27T16:06:29;8.40;;;3.87;;
64936;SDS011;51452;47.698;19.050;2023-02-27T16:09:03;10.83;;;3.83;;
64936;SDS011;51452;47.698;19.050;2023-02-27T16:11:44;8.33;;;3.77;;
64936;SDS011;51452;47.698;19.050;2023-02-27T16:17:24;10.60;;;4.07;;
64936;SDS011;51452;47.698;19.050;2023-02-27T16:19:52;5.63;;;3.40;;
64936;SDS011;51452;47.698;19.050;2023-02-27T16:22:19;7.50;;;3.77;;
64936;SDS011;51452;47.698;19.050;2023-02-27T16:24:45;8.43;;;3.73;;
64936;SDS011;51452;47.698;19.050;2023-02-27T16:27:20;8.13;;;4.03;;
64936;SDS011;51452;47.698;19.050;2023-02-27T16:29:49;8.23;;;3.77;;
64936;SDS011;51452;47.698;19.050;2023-02-27T16:32:21;7.27;;;3.73;;
64936;SDS011;51452;47.698;19.050;2023-02-27T16:34:48;7.70;;;3.50;;
64936;SDS011;51452;47.698;19.050;2023-02-27T16:37:17;6.70;;;3.70;;
64936;SDS011;51452;47.698;19.050;2023-02-27T16:39:45;8.13;;;3.43;;
64936;SDS011;51452;47.698;19.050;2023-02-27T16:42:10;6.40;;;3.47;;
64936;SDS011;51452;47.698;19.050;2023-02-27T16:44:36;8.33;;;3.73;;
64936;SDS011;51452;47.698;19.050;2023-02-27T16:47:02;7.80;;;3.90;;
64936;SDS011;51452;47.698;19.050;2023-02-27T16:49:28;10.17;;;4.00;;
64936;SDS011;51452;47.698;19.050;2023-02-27T16:51:54;8.67;;;4.40;;
64936;SDS011;51452;47.698;19.050;2023-02-27T16:54:20;10.27;;;4.70;;
64936;SDS011;51452;47.698;19.050;2023-02-27T16:56:47;6.33;;;3.70;;
64936;SDS011;51452;47.698;19.050;2023-02-27T17:02:02;7.43;;;3.43;;
64936;SDS011;51452;47.698;19.050;2023-02-27T17:04:29;7.00;;;3.20;;
64936;SDS011;51452;47.698;19.050;2023-02-27T17:06:55;9.07;;;3.87;;
64936;SDS011;51452;47.698;19.050;2023-02-27T17:09:23;5.47;;;3.10;;
64936;SDS011;51452;47.698;19.050;2023-02-27T17:11:51;6.80;;;3.80;;
64936;SDS011;51452;47.698;19.050;2023-02-27T17:14:17;5.40;;;3.47;;
64936;SDS011;51452;47.698;19.050;2023-02-27T17:16:45;7.23;;;3.57;;
64936;SDS011;51452;47.698;19.050;2023-02-27T17:19:11;6.60;;;3.30;;
64936;SDS011;51452;47.698;19.050;2023-02-27T17:21:38;9.37;;;3.87;;
64936;SDS011;51452;47.698;19.050;2023-02-27T17:24:04;8.57;;;3.93;;
64936;SDS011;51452;47.698;19.050;2023-02-27T17:26:31;7.10;;;4.27;;
64936;SDS011;51452;47.698;19.050;2023-02-27T17:28:57;8.67;;;3.70;;
64936;SDS011;51452;47.698;19.050;2023-02-27T17:31:23;9.70;;;3.87;;
64936;SDS011;51452;47.698;19.050;2023-02-27T17:33:50;9.27;;;4.23;;
64936;SDS011;51452;47.698;19.050;2023-02-27T17:36:18;7.83;;;3.50;;
64936;SDS011;51452;47.698;19.050;2023-02-27T17:38:45;7.53;;;4.30;;
64936;SDS011;51452;47.698;19.050;2023-02-27T17:41:12;11.77;;;4.70;;
64936;SDS011;51452;47.698;19.050;2023-02-27T17:43:38;9.83;;;4.27;;
64936;SDS011;51452;47.698;19.050;2023-02-27T17:46:08;6.90;;;3.67;;
64936;SDS011;51452;47.698;19.050;2023-02-27T17:48:35;7.77;;;4.07;;
64936;SDS011;51452;47.698;19.050;2023-02-27T17:51:02;8.73;;;4.37;;
64936;SDS011;51452;47.698;19.050;2023-02-27T17:53:38;8.80;;;4.20;;
64936;SDS011;51452;47.698;19.050;2023-02-27T17:56:05;7.43;;;3.83;;
64936;SDS011;51452;47.698;19.050;2023-02-27T17:58:33;8.57;;;3.93;;
64936;SDS011;51452;47.698;19.050;2023-02-27T18:01:09;9.03;;;3.40;;
64936;SDS011;51452;47.698;19.050;2023-02-27T18:03:37;9.47;;;4.13;;
64936;SDS011;51452;47.698;19.050;2023-02-27T18:06:04;12.03;;;4.43;;
64936;SDS011;51452;47.698;19.050;2023-02-27T18:08:31;8.50;;;4.20;;
64936;SDS011;51452;47.698;19.050;2023-02-27T18:10:57;7.20;;;3.33;;
64936;SDS011;51452;47.698;19.050;2023-02-27T18:13:23;9.20;;;4.30;;